createdAt,value
2019-05-12T00:00:40.243Z,99.90
2019-05-12T00:03:11.039Z,99.90
2019-05-12T00:05:41.791Z,99.90
2019-05-12T00:08:12.556Z,99.90
2019-05-12T00:10:43.315Z,99.90
2019-05-12T00:13:14.032Z,99.90
2019-05-12T00:15:44.758Z,99.90
2019-05-12T00:18:17.874Z,99.90
2019-05-12T00:20:47.922Z,99.90
2019-05-12T00:23:25.059Z,99.90
2019-05-12T00:25:51.052Z,99.90
2019-05-12T00:28:21.829Z,99.90
2019-05-12T00:30:52.627Z,99.90
2019-05-12T00:33:23.362Z,99.90
2019-05-12T00:35:54.069Z,99.90
2019-05-12T00:38:24.846Z,99.90
2019-05-12T00:40:55.602Z,99.90
2019-05-12T00:43:28.148Z,99.90
2019-05-12T00:45:58.838Z,99.90
2019-05-12T00:48:29.622Z,99.90
2019-05-12T00:51:00.368Z,99.90
2019-05-12T00:53:39.632Z,99.90
2019-05-12T00:56:03.511Z,99.90
2019-05-12T00:58:34.289Z,99.90
2019-05-12T01:01:05.034Z,99.90
2019-05-12T01:03:37.982Z,99.90
2019-05-12T01:06:08.488Z,99.90
2019-05-12T01:08:39.323Z,99.90
2019-05-12T01:11:10.110Z,99.90
2019-05-12T01:13:40.865Z,99.90
2019-05-12T01:16:11.592Z,99.90
2019-05-12T01:18:42.399Z,99.90
2019-05-12T01:21:13.076Z,99.90
2019-05-12T01:23:53.827Z,99.90
2019-05-12T01:26:17.904Z,99.90
2019-05-12T01:28:48.918Z,99.90
2019-05-12T01:31:21.282Z,99.90
2019-05-12T01:33:52.358Z,99.90
2019-05-12T01:36:23.085Z,99.90
2019-05-12T01:38:53.913Z,99.90
2019-05-12T01:41:24.617Z,99.90
2019-05-12T01:43:55.414Z,99.90
2019-05-12T01:46:28.257Z,99.90
2019-05-12T01:48:59.117Z,99.90
2019-05-12T01:51:30.103Z,99.90
2019-05-12T01:54:10.534Z,99.90
2019-05-12T01:56:33.239Z,99.90
2019-05-12T01:59:04.022Z,99.90
2019-05-12T02:01:35.428Z,99.90
2019-05-12T02:04:07.740Z,99.90
2019-05-12T02:06:38.913Z,99.90
2019-05-12T02:09:12.942Z,99.90
2019-05-12T02:11:43.636Z,99.90
2019-05-12T02:14:14.443Z,99.90
2019-05-12T02:16:47.571Z,99.90
2019-05-12T02:19:17.936Z,99.90
2019-05-12T02:21:48.913Z,99.90
2019-05-12T02:24:26.683Z,99.90
2019-05-12T02:26:52.036Z,99.90
2019-05-12T02:29:22.831Z,99.90
2019-05-12T02:31:53.569Z,99.90
2019-05-12T02:34:25.396Z,99.90
2019-05-12T02:36:56.466Z,99.90
2019-05-12T02:39:27.228Z,99.90
2019-05-12T02:41:58.045Z,99.90
2019-05-12T02:44:28.751Z,99.90
2019-05-12T02:46:59.526Z,99.90
2019-05-12T02:49:30.263Z,99.90
2019-05-12T02:52:01.054Z,99.90
2019-05-12T02:54:50.124Z,99.90
2019-05-12T02:57:05.075Z,99.90
2019-05-12T02:59:37.902Z,99.90
2019-05-12T03:02:10.279Z,99.90
2019-05-12T03:04:44.186Z,99.90
2019-05-12T03:07:16.221Z,99.90
2019-05-12T03:09:49.652Z,99.90
2019-05-12T03:12:20.415Z,99.90
2019-05-12T03:14:53.846Z,99.90
2019-05-12T03:17:25.136Z,99.90
2019-05-12T03:19:55.886Z,99.90
2019-05-12T03:22:26.733Z,99.90
2019-05-12T03:25:11.796Z,99.90
2019-05-12T03:27:29.876Z,99.90
2019-05-12T03:30:00.613Z,99.90
2019-05-12T03:32:31.360Z,99.90
2019-05-12T03:35:08.069Z,99.90
2019-05-12T03:37:35.321Z,99.90
2019-05-12T03:40:06.560Z,99.90
2019-05-12T03:42:37.326Z,99.90
2019-05-12T03:45:08.184Z,99.90
2019-05-12T03:47:38.916Z,99.90
2019-05-12T03:50:09.684Z,99.90
2019-05-12T03:52:40.479Z,99.90
2019-05-12T03:55:27.305Z,99.90
2019-05-12T03:57:45.009Z,99.90
2019-05-12T04:00:16.202Z,99.90
2019-05-12T04:02:47.016Z,99.90
2019-05-12T04:05:17.751Z,99.90
2019-05-12T04:07:48.599Z,99.90
2019-05-12T04:10:19.385Z,99.90
2019-05-12T04:12:50.171Z,99.90
2019-05-12T04:15:21.056Z,99.90
2019-05-12T04:17:54.299Z,99.90
2019-05-12T04:20:25.433Z,99.90
2019-05-12T04:22:56.558Z,99.90
2019-05-12T04:25:45.721Z,99.90
2019-05-12T04:27:59.715Z,99.90
2019-05-12T04:30:30.451Z,99.90
2019-05-12T04:33:04.418Z,99.90
2019-05-12T04:35:34.931Z,99.90
2019-05-12T04:38:05.968Z,99.90
2019-05-12T04:40:37.265Z,99.90
2019-05-12T04:43:08.098Z,99.90
2019-05-12T04:45:38.809Z,99.90
2019-05-12T04:48:09.565Z,99.90
2019-05-12T04:50:40.309Z,99.90
2019-05-12T04:53:14.171Z,99.90
2019-05-12T04:55:44.624Z,99.90
2019-05-12T04:58:16.917Z,99.90
2019-05-12T05:00:47.665Z,99.90
2019-05-12T05:03:18.454Z,99.90
2019-05-12T05:05:49.179Z,99.90
2019-05-12T05:08:20.169Z,99.90
2019-05-12T05:10:51.112Z,99.90
2019-05-12T05:13:24.271Z,99.90
2019-05-12T05:15:54.928Z,99.90
2019-05-12T05:18:25.811Z,99.90
2019-05-12T05:20:56.598Z,99.90
2019-05-12T05:23:27.335Z,99.90
2019-05-12T05:25:58.071Z,99.90
2019-05-12T05:28:28.858Z,99.90
2019-05-12T05:30:59.614Z,99.90
2019-05-12T05:33:30.391Z,99.90
2019-05-12T05:36:03.343Z,99.90
2019-05-12T05:38:34.298Z,99.90
2019-05-12T05:41:10.287Z,99.90
2019-05-12T05:43:37.507Z,99.90
2019-05-12T05:46:08.366Z,99.90
2019-05-12T05:48:39.140Z,99.90
2019-05-12T05:51:09.905Z,99.70
2019-05-12T05:53:40.658Z,99.90
2019-05-12T05:56:11.389Z,99.90
2019-05-12T05:58:46.976Z,99.90
2019-05-12T06:01:14.487Z,99.90
2019-05-12T06:03:45.244Z,99.90
2019-05-12T06:06:16.007Z,99.90
2019-05-12T06:08:57.603Z,99.90
2019-05-12T06:11:28.770Z,99.90
2019-05-12T06:14:03.190Z,99.90
2019-05-12T06:16:34.077Z,99.90
2019-05-12T06:19:04.400Z,99.90
2019-05-12T06:21:38.220Z,99.90
2019-05-12T06:24:08.611Z,99.90
2019-05-12T06:26:54.521Z,99.90
2019-05-12T06:29:20.083Z,99.90
2019-05-12T06:31:44.775Z,99.90
2019-05-12T06:34:20.830Z,99.90
2019-05-12T06:36:47.958Z,99.90
2019-05-12T06:39:20.647Z,99.90
2019-05-12T06:41:53.502Z,99.90
2019-05-12T06:44:24.082Z,99.90
2019-05-12T06:47:02.554Z,99.90
2019-05-12T06:49:27.332Z,99.90
2019-05-12T06:52:01.588Z,99.90
2019-05-12T06:54:30.530Z,99.90
2019-05-12T06:57:18.611Z,99.90
2019-05-12T06:59:33.928Z,99.90
2019-05-12T07:02:04.814Z,99.90
2019-05-12T07:04:35.570Z,99.90
2019-05-12T07:07:06.368Z,98.40
2019-05-12T07:09:50.981Z,99.90
2019-05-12T07:12:09.530Z,99.90
2019-05-12T07:14:40.236Z,99.90
2019-05-12T07:17:28.586Z,99.90
2019-05-12T07:19:59.324Z,99.90
2019-05-12T07:22:31.839Z,99.90
2019-05-12T07:25:04.532Z,98.80
2019-05-12T07:27:39.355Z,98.80
2019-05-12T07:30:08.286Z,97.30
2019-05-12T07:32:39.087Z,95.70
2019-05-12T07:35:09.843Z,97.70
2019-05-12T07:37:43.631Z,98.20
2019-05-12T07:40:14.305Z,98.60
2019-05-12T07:42:45.439Z,97.50
2019-05-12T07:45:20.135Z,98.30
2019-05-12T07:47:48.706Z,97.50
2019-05-12T07:50:20.788Z,97.00
2019-05-12T07:52:54.198Z,96.10
2019-05-12T07:55:24.538Z,94.80
2019-05-12T07:57:58.740Z,95.60
2019-05-12T08:00:27.682Z,94.10
2019-05-12T08:02:58.466Z,94.40
2019-05-12T08:05:29.192Z,94.60
2019-05-12T08:08:00.675Z,93.90
2019-05-12T08:10:34.317Z,92.80
2019-05-12T08:13:04.855Z,92.50
2019-05-12T08:15:39.822Z,93.30
2019-05-12T08:18:08.258Z,93.80
2019-05-12T08:20:39.102Z,92.10
2019-05-12T08:23:10.706Z,89.80
2019-05-12T08:25:43.710Z,90.50
2019-05-12T08:28:18.293Z,93.50
2019-05-12T08:30:52.062Z,88.10
2019-05-12T08:33:18.805Z,89.60
2019-05-12T08:35:49.552Z,88.50
2019-05-12T08:38:20.339Z,87.70
2019-05-12T08:40:53.588Z,89.70
2019-05-12T08:43:24.064Z,90.20
2019-05-12T08:45:55.048Z,89.20
2019-05-12T08:48:25.804Z,88.90
2019-05-12T08:50:56.588Z,87.40
2019-05-12T08:53:27.297Z,88.60
2019-05-12T08:55:58.028Z,87.10
2019-05-12T08:58:33.521Z,88.00
2019-05-12T09:01:01.472Z,86.70
2019-05-12T09:03:33.561Z,87.60
2019-05-12T09:06:09.254Z,85.00
2019-05-12T09:08:44.014Z,83.30
2019-05-12T09:11:09.754Z,83.90
2019-05-12T09:13:40.440Z,85.10
2019-05-12T09:16:13.635Z,83.10
2019-05-12T09:18:43.788Z,83.50
2019-05-12T09:21:14.539Z,82.90
2019-05-12T09:23:45.716Z,81.30
2019-05-12T09:26:18.524Z,82.00
2019-05-12T09:28:50.374Z,82.90
2019-05-12T09:31:25.453Z,80.80
2019-05-12T09:33:54.704Z,81.60
2019-05-12T09:36:25.548Z,78.30
2019-05-12T09:39:01.481Z,75.00
2019-05-12T09:41:28.672Z,76.30
2019-05-12T09:44:01.667Z,77.70
2019-05-12T09:46:37.666Z,77.60
2019-05-12T09:50:04.332Z,71.60
2019-05-12T09:53:09.414Z,74.00
2019-05-12T09:56:00.669Z,70.00
2019-05-12T09:59:17.125Z,72.60
2019-05-12T10:01:43.097Z,72.50
2019-05-12T10:04:17.853Z,70.30
2019-05-12T10:06:49.321Z,68.20
2019-05-12T10:13:40.519Z,70.50
2019-05-12T10:17:06.594Z,66.60
2019-05-12T10:20:29.120Z,67.30
2019-05-12T10:26:50.706Z,67.40
2019-05-12T10:30:02.487Z,64.20
2019-05-12T10:37:13.800Z,62.40
2019-05-12T10:40:26.860Z,63.30
2019-05-12T10:46:59.680Z,63.80
2019-05-12T10:50:23.454Z,64.00
2019-05-12T10:54:07.704Z,63.50
2019-05-12T11:00:14.284Z,60.00
2019-05-12T11:03:01.463Z,56.70
2019-05-12T11:05:35.333Z,59.50
2019-05-12T11:12:13.618Z,56.10
2019-05-12T11:15:13.883Z,57.00
2019-05-12T11:22:38.189Z,58.20
2019-05-12T11:26:03.921Z,55.40
2019-05-12T11:36:57.853Z,56.20
2019-05-12T11:51:09.598Z,52.80
2019-05-12T11:54:41.153Z,49.60
2019-05-12T11:58:41.328Z,48.00
2019-05-12T12:01:39.469Z,50.40
2019-05-12T12:04:54.630Z,50.20
2019-05-12T12:07:25.481Z,49.50
2019-05-12T12:09:59.427Z,45.00
2019-05-12T12:12:28.685Z,48.60
2019-05-12T12:14:59.479Z,46.90
2019-05-12T12:17:33.466Z,46.70
2019-05-12T12:20:03.765Z,42.20
2019-05-12T12:23:50.247Z,42.10
2019-05-12T12:26:30.420Z,42.30
2019-05-12T12:28:59.723Z,42.60
2019-05-12T12:31:47.715Z,42.20
2019-05-12T12:34:24.004Z,42.50
2019-05-12T12:36:54.142Z,43.70
2019-05-12T12:39:23.943Z,44.50
2019-05-12T12:42:00.359Z,41.20
2019-05-12T12:44:28.718Z,43.50
2019-05-12T12:47:43.410Z,41.30
2019-05-12T12:50:07.339Z,42.10
2019-05-12T12:52:38.793Z,41.10
2019-05-12T12:55:10.472Z,36.30
2019-05-12T12:57:46.467Z,40.00
2019-05-12T13:00:27.557Z,41.40
2019-05-12T13:02:49.288Z,38.80
2019-05-12T13:05:18.713Z,39.50
2019-05-12T13:07:49.535Z,39.60
2019-05-12T13:10:20.312Z,41.10
2019-05-12T13:12:58.686Z,41.40
2019-05-12T13:15:23.694Z,41.60
2019-05-12T13:17:54.551Z,41.40
2019-05-12T13:20:25.317Z,40.50
2019-05-12T13:22:56.098Z,39.30
2019-05-12T13:25:26.881Z,36.50
2019-05-12T13:28:01.607Z,35.90
2019-05-12T13:30:43.597Z,36.30
2019-05-12T13:33:03.564Z,38.00
2019-05-12T13:35:34.478Z,39.90
2019-05-12T13:38:05.254Z,41.00
2019-05-12T13:40:39.189Z,43.10
2019-05-12T13:43:09.115Z,41.10
2019-05-12T13:45:40.794Z,39.70
2019-05-12T13:48:15.934Z,38.50
2019-05-12T13:50:43.947Z,37.50
2019-05-12T13:53:15.513Z,38.40
2019-05-12T13:55:50.622Z,41.00
2019-05-12T13:58:21.418Z,39.70
2019-05-12T14:01:12.241Z,36.40
2019-05-12T14:03:27.834Z,34.60
2019-05-12T14:05:57.388Z,33.70
2019-05-12T14:08:28.414Z,38.10
2019-05-12T14:10:59.894Z,38.90
2019-05-12T14:13:30.717Z,41.60
2019-05-12T14:16:03.905Z,42.00
2019-05-12T14:18:36.255Z,38.90
2019-05-12T14:21:06.298Z,34.90
2019-05-12T14:23:37.039Z,33.00
2019-05-12T14:26:09.355Z,30.30
2019-05-12T14:28:45.495Z,29.40
2019-05-12T14:31:24.449Z,28.30
2019-05-12T14:33:44.981Z,28.80
2019-05-12T14:36:21.670Z,29.60
2019-05-12T14:38:48.130Z,29.20
2019-05-12T14:41:18.901Z,32.80
2019-05-12T14:43:53.630Z,34.30
2019-05-12T14:46:24.113Z,36.60
2019-05-12T14:48:54.462Z,38.40
2019-05-12T14:51:25.257Z,39.40
2019-05-12T14:53:56.042Z,39.70
2019-05-12T14:56:26.710Z,40.00
2019-05-12T14:59:00.717Z,38.40
2019-05-12T15:01:44.200Z,37.60
2019-05-12T15:04:05.055Z,35.50
2019-05-12T15:06:35.037Z,35.00
2019-05-12T15:09:11.459Z,35.50
2019-05-12T15:11:40.163Z,37.80
2019-05-12T15:14:10.927Z,39.30
2019-05-12T15:16:44.228Z,41.10
2019-05-12T15:19:14.141Z,42.10
2019-05-12T15:21:44.857Z,41.00
2019-05-12T15:24:19.015Z,41.70
2019-05-12T15:26:50.589Z,41.90
2019-05-12T15:29:20.727Z,43.60
2019-05-12T15:31:54.274Z,41.70
2019-05-12T15:34:23.931Z,42.50
2019-05-12T15:36:56.566Z,42.10
2019-05-12T15:39:27.042Z,40.90
2019-05-12T15:41:58.710Z,42.40
2019-05-12T15:44:32.328Z,42.60
2019-05-12T15:47:03.888Z,42.40
2019-05-12T15:49:34.450Z,43.50
2019-05-12T15:52:05.211Z,44.10
2019-05-12T15:54:36.320Z,41.90
2019-05-12T15:57:07.253Z,42.80
2019-05-12T15:59:38.015Z,43.10
2019-05-12T16:02:16.019Z,42.40
2019-05-12T16:04:43.067Z,40.80
2019-05-12T16:07:14.203Z,41.60
2019-05-12T16:09:45.649Z,43.20
2019-05-12T16:12:23.574Z,41.10
2019-05-12T16:14:49.026Z,41.40
2019-05-12T16:17:25.467Z,41.70
2019-05-12T16:19:54.141Z,42.60
2019-05-12T16:22:24.686Z,41.10
2019-05-12T16:24:55.451Z,40.60
2019-05-12T16:27:33.123Z,41.60
2019-05-12T16:29:58.667Z,41.70
2019-05-12T16:32:39.524Z,42.80
2019-05-12T16:35:05.075Z,42.40
2019-05-12T16:37:35.243Z,43.50
2019-05-12T16:40:06.714Z,43.90
2019-05-12T16:42:40.932Z,43.40
2019-05-12T16:45:10.420Z,44.70
2019-05-12T16:47:41.263Z,43.10
2019-05-12T16:50:24.032Z,44.90
2019-05-12T16:52:45.502Z,45.60
2019-05-12T16:55:16.471Z,46.60
2019-05-12T16:57:52.905Z,46.40
2019-05-12T17:00:19.795Z,46.00
2019-05-12T17:02:53.810Z,46.80
2019-05-12T17:05:24.065Z,46.30
2019-05-12T17:07:55.753Z,46.40
2019-05-12T17:10:27.652Z,45.30
2019-05-12T17:12:58.508Z,44.10
2019-05-12T17:15:29.315Z,44.80
2019-05-12T17:18:01.749Z,45.40
2019-05-12T17:20:33.815Z,46.80
2019-05-12T17:23:04.643Z,46.40
2019-05-12T17:25:35.399Z,44.00
2019-05-12T17:28:06.199Z,44.40
2019-05-12T17:30:36.993Z,44.30
2019-05-12T17:33:07.799Z,45.00
2019-05-12T17:35:38.598Z,45.40
2019-05-12T17:38:13.870Z,46.30
2019-05-12T17:40:44.013Z,47.00
2019-05-12T17:43:14.225Z,46.20
2019-05-12T17:45:44.962Z,46.40
2019-05-12T17:48:15.727Z,46.60
2019-05-12T17:50:50.462Z,45.90
2019-05-12T17:53:18.921Z,47.30
2019-05-12T17:55:53.215Z,46.90
2019-05-12T17:58:24.077Z,48.10
2019-05-12T18:00:54.501Z,47.10
2019-05-12T18:03:25.906Z,47.80
2019-05-12T18:05:56.813Z,46.40
2019-05-12T18:08:32.709Z,46.40
2019-05-12T18:11:00.006Z,47.30
2019-05-12T18:13:30.839Z,48.00
2019-05-12T18:16:05.341Z,47.30
2019-05-12T18:18:38.087Z,48.30
2019-05-12T18:21:06.367Z,49.50
2019-05-12T18:23:37.379Z,48.90
2019-05-12T18:26:11.708Z,48.90
2019-05-12T18:28:40.593Z,48.50
2019-05-12T18:31:13.673Z,49.10
2019-05-12T18:33:52.008Z,48.50
2019-05-12T18:36:16.193Z,48.30
2019-05-12T18:38:47.108Z,48.30
2019-05-12T18:41:17.808Z,49.10
2019-05-12T18:43:48.611Z,48.60
2019-05-12T18:46:19.377Z,49.60
2019-05-12T18:48:54.295Z,49.00
2019-05-12T18:51:23.757Z,49.60
2019-05-12T18:53:57.709Z,50.60
2019-05-12T18:56:27.125Z,51.50
2019-05-12T18:59:03.962Z,51.90
2019-05-12T19:01:30.317Z,52.80
2019-05-12T19:04:03.868Z,54.30
2019-05-12T19:06:34.790Z,55.30
2019-05-12T19:09:08.298Z,55.20
2019-05-12T19:11:41.949Z,53.50
2019-05-12T19:14:13.470Z,54.90
2019-05-12T19:16:43.889Z,54.60
2019-05-12T19:19:19.894Z,55.90
2019-05-12T19:21:52.336Z,55.80
2019-05-12T19:24:20.135Z,55.90
2019-05-12T19:26:51.044Z,56.50
2019-05-12T19:29:24.132Z,56.70
2019-05-12T19:31:57.786Z,57.10
2019-05-12T19:34:26.643Z,58.20
2019-05-12T19:36:57.390Z,59.20
2019-05-12T19:39:28.215Z,59.90
2019-05-12T19:41:58.992Z,59.40
2019-05-12T19:44:30.803Z,58.70
2019-05-12T19:47:01.746Z,59.10
2019-05-12T19:49:45.870Z,59.50
2019-05-12T19:52:04.887Z,59.40
2019-05-12T19:54:36.909Z,60.00
2019-05-12T19:57:15.141Z,61.20
2019-05-12T19:59:43.987Z,61.70
2019-05-12T20:02:14.447Z,62.40
2019-05-12T20:04:51.770Z,63.60
2019-05-12T20:07:17.417Z,63.80
2019-05-12T20:09:55.058Z,64.20
2019-05-12T20:12:20.580Z,64.80
2019-05-12T20:14:56.869Z,64.90
2019-05-12T20:17:24.287Z,66.00
2019-05-12T20:19:55.100Z,66.50
2019-05-12T20:22:25.895Z,66.40
2019-05-12T20:24:56.682Z,66.60
2019-05-12T20:27:27.458Z,67.10
2019-05-12T20:29:58.220Z,67.20
2019-05-12T20:32:29.021Z,67.40
2019-05-12T20:34:59.767Z,67.70
2019-05-12T20:37:30.510Z,68.30
2019-05-12T20:40:05.225Z,68.90
2019-05-12T20:42:42.467Z,69.30
2019-05-12T20:45:08.204Z,70.30
2019-05-12T20:47:44.418Z,71.90
2019-05-12T20:50:14.442Z,71.90
2019-05-12T20:52:51.245Z,73.80
2019-05-12T20:55:16.719Z,71.90
2019-05-12T20:57:56.065Z,72.40
2019-05-12T21:00:19.943Z,73.00
2019-05-12T21:02:50.680Z,73.20
2019-05-12T21:05:23.595Z,73.80
2019-05-12T21:07:55.638Z,73.40
2019-05-12T21:10:29.656Z,74.50
2019-05-12T21:12:58.606Z,76.10
2019-05-12T21:15:39.537Z,76.20
2019-05-12T21:18:06.859Z,76.00
2019-05-12T21:20:34.175Z,75.90
2019-05-12T21:23:04.961Z,76.10
2019-05-12T21:25:35.724Z,76.90
2019-05-12T21:28:07.852Z,77.40
2019-05-12T21:30:42.323Z,78.90
2019-05-12T21:33:11.128Z,78.60
2019-05-12T21:35:45.743Z,79.10
2019-05-12T21:38:18.838Z,78.90
2019-05-12T21:40:46.657Z,79.10
2019-05-12T21:43:17.453Z,79.80
2019-05-12T21:45:48.139Z,80.50
2019-05-12T21:48:24.170Z,80.90
2019-05-12T21:50:53.098Z,82.00
2019-05-12T21:53:23.932Z,82.20
2019-05-12T21:56:03.710Z,82.60
2019-05-12T21:58:27.413Z,83.90
2019-05-12T22:01:05.126Z,84.10
2019-05-12T22:03:33.592Z,84.00
2019-05-12T22:06:15.209Z,84.40
2019-05-12T22:08:36.839Z,84.20
2019-05-12T22:11:11.366Z,84.10
2019-05-12T22:13:46.878Z,83.70
2019-05-12T22:16:14.200Z,85.00
2019-05-12T22:18:47.711Z,85.60
2019-05-12T22:21:17.474Z,85.20
2019-05-12T22:23:51.436Z,85.00
2019-05-12T22:26:20.616Z,85.10
2019-05-12T22:28:53.566Z,85.90
2019-05-12T22:31:24.303Z,85.50
2019-05-12T22:33:56.396Z,86.00
2019-05-12T22:36:30.115Z,86.10
2019-05-12T22:39:00.839Z,86.50
2019-05-12T22:41:36.880Z,87.40
2019-05-12T22:44:04.572Z,87.50
2019-05-12T22:46:35.905Z,86.90
2019-05-12T22:49:10.476Z,87.00
2019-05-12T22:51:39.102Z,87.70
2019-05-12T22:54:10.652Z,87.90
2019-05-12T22:56:44.042Z,88.30
2019-05-12T22:59:13.900Z,88.80
2019-05-12T23:01:46.892Z,88.70
2019-05-12T23:04:17.063Z,88.70
2019-05-12T23:06:47.881Z,88.20
2019-05-12T23:09:19.501Z,88.20
2019-05-12T23:11:53.062Z,88.60
2019-05-12T23:14:25.133Z,88.50
2019-05-12T23:17:00.151Z,88.00
2019-05-12T23:19:28.274Z,88.40
2019-05-12T23:21:59.109Z,88.50
2019-05-12T23:24:30.386Z,87.90
2019-05-12T23:27:04.649Z,88.00
2019-05-12T23:29:34.490Z,88.50
2019-05-12T23:32:07.292Z,88.90
2019-05-12T23:34:37.562Z,89.40
2019-05-12T23:37:08.307Z,89.40
2019-05-12T23:39:39.939Z,89.90
2019-05-12T23:42:10.750Z,90.20
2019-05-12T23:44:44.200Z,90.30
2019-05-12T23:47:14.743Z,90.20
2019-05-12T23:49:45.489Z,90.40
2019-05-12T23:52:16.251Z,90.90
2019-05-12T23:54:46.982Z,91.20
2019-05-12T23:57:17.750Z,91.00
2019-05-12T23:59:48.467Z,91.60
